Time;durP1;ratioP1;P1;durP2;ratioP2;P2;SDS_P1;SDS_P2;PMS_P1;PMS_P2;Temp;Humidity;BMP_temperature;BMP_pressure;BME280_temperature;BME280_humidity;BME280_pressure;Samples;Min_cycle;Max_cycle;Signal;HPM_P1;HPM_P2
2021/12/11 10:41:52;;;;;;;4.18;3.88;;;;;;;;;;6202812;22;20074;-81
2021/12/11 10:44:32;;;;;;;5.10;4.80;;;;;;;;;;6246314;23;20454;-83
2021/12/11 10:47:14;;;;;;;5.25;4.85;;;;;;;;;;6247810;23;20011;-83
2021/12/11 10:49:40;;;;;;;4.45;4.15;;;;;;;;;;6220907;23;20004;-83
2021/12/11 10:52:14;;;;;;;4.10;3.85;;;;;;;;;;6220322;23;20087;-86
2021/12/11 10:54:40;;;;;;;4.82;4.43;;;;;;;;;;6247227;23;20338;-86
2021/12/11 10:57:06;;;;;;;4.10;3.80;;;;;;;;;;6247220;23;20004;-86
2021/12/11 10:59:37;;;;;;;4.00;3.60;;;;;;;;;;6247537;23;20413;-85
2021/12/11 11:02:27;;;;;;;3.90;3.60;;;;;;;;;;6220351;23;20071;-86
2021/12/11 11:04:58;;;;;;;4.88;3.78;;;;;;;;;;6247388;23;20079;-86
2021/12/11 11:07:26;;;;;;;3.72;3.30;;;;;;;;;;6220513;23;20008;-86
2021/12/11 11:09:54;;;;;;;3.85;3.55;;;;;;;;;;6247563;23;20032;-86
2021/12/11 11:12:23;;;;;;;5.13;4.63;;;;;;;;;;6247051;23;20031;-84
2021/12/11 11:14:52;;;;;;;4.28;2.97;;;;;;;;;;6220390;23;20003;-85
2021/12/11 11:17:20;;;;;;;2.90;2.70;;;;;;;;;;6247128;23;20007;-84
2021/12/11 11:19:48;;;;;;;4.20;2.72;;;;;;;;;;6247022;23;20001;-86
2021/12/11 11:22:19;;;;;;;3.65;2.88;;;;;;;;;;6247094;23;20147;-85
2021/12/11 11:24:52;;;;;;;3.70;2.80;;;;;;;;;;6247214;23;20455;-83
2021/12/11 11:27:19;;;;;;;2.92;2.63;;;;;;;;;;6247148;23;20335;-85
2021/12/11 11:29:48;;;;;;;2.70;2.40;;;;;;;;;;6247093;23;20000;-85
2021/12/11 11:32:22;;;;;;;2.72;2.40;;;;;;;;;;6220447;23;20042;-85
2021/12/11 11:34:47;;;;;;;2.38;2.17;;;;;;;;;;6220448;23;20043;-88
2021/12/11 11:37:19;;;;;;;2.53;2.33;;;;;;;;;;6247086;23;20314;-84
2021/12/11 11:39:45;;;;;;;2.40;2.20;;;;;;;;;;6247252;23;20004;-84
2021/12/11 11:42:15;;;;;;;3.03;2.08;;;;;;;;;;6247216;23;20011;-85
2021/12/11 11:44:45;;;;;;;2.72;2.53;;;;;;;;;;6247198;23;20008;-84
2021/12/11 11:47:13;;;;;;;3.30;2.67;;;;;;;;;;6220159;23;20000;-85
2021/12/11 11:49:39;;;;;;;2.70;2.50;;;;;;;;;;6247331;23;20039;-84
2021/12/11 11:52:15;;;;;;;4.38;3.50;;;;;;;;;;6220218;23;20016;-87
2021/12/11 11:54:46;;;;;;;2.80;2.42;;;;;;;;;;6246987;23;20007;-86
2021/12/11 11:57:20;;;;;;;2.65;2.15;;;;;;;;;;6220150;23;20092;-82
2021/12/11 11:59:48;;;;;;;2.28;2.08;;;;;;;;;;6219980;23;20031;-84
2021/12/11 12:02:17;;;;;;;1.63;1.52;;;;;;;;;;6247525;23;20000;-90
2021/12/11 12:04:45;;;;;;;1.88;1.77;;;;;;;;;;6220929;23;20091;-88
2021/12/11 12:07:11;;;;;;;2.20;2.00;;;;;;;;;;6220696;23;20012;-90
2021/12/11 12:09:44;;;;;;;1.70;1.60;;;;;;;;;;6220268;23;20038;-88
2021/12/11 12:12:12;;;;;;;5.35;2.47;;;;;;;;;;6220045;23;20419;-88
2021/12/11 12:14:39;;;;;;;4.50;1.70;;;;;;;;;;6246769;23;20008;-84
2021/12/11 12:17:08;;;;;;;1.52;1.42;;;;;;;;;;6246601;23;20421;-84
2021/12/11 12:19:35;;;;;;;1.70;1.33;;;;;;;;;;6219658;23;20102;-84
2021/12/11 12:22:03;;;;;;;1.55;1.30;;;;;;;;;;6219576;23;20007;-83
2021/12/11 12:24:31;;;;;;;1.85;1.48;;;;;;;;;;6219802;23;20420;-83
2021/12/11 12:26:59;;;;;;;1.98;1.65;;;;;;;;;;6246754;23;20004;-83
2021/12/11 12:29:26;;;;;;;1.33;1.23;;;;;;;;;;6246790;23;20004;-83
2021/12/11 12:32:15;;;;;;;1.40;1.30;;;;;;;;;;6219561;23;20083;-83
2021/12/11 12:34:45;;;;;;;2.65;1.23;;;;;;;;;;6246454;23;20007;-83
2021/12/11 12:37:11;;;;;;;3.05;2.58;;;;;;;;;;6246755;23;20011;-83
2021/12/11 12:39:43;;;;;;;2.00;1.70;;;;;;;;;;6246888;23;20000;-82
2021/12/11 12:42:35;;;;;;;2.40;0.93;;;;;;;;;;6246499;23;20012;-83
2021/12/11 12:45:20;;;;;;;2.42;1.95;;;;;;;;;;6246180;23;20008;-82
2021/12/11 12:48:01;;;;;;;7.25;3.45;;;;;;;;;;6246608;23;20473;-83
2021/12/11 12:50:48;;;;;;;6.60;3.00;;;;;;;;;;6246383;23;20419;-83
2021/12/11 12:53:15;;;;;;;73.38;30.60;;;;;;;;;;6219561;23;20015;-83
2021/12/11 12:56:08;;;;;;;7.47;4.03;;;;;;;;;;6246655;23;20438;-83
2021/12/11 12:58:48;;;;;;;2.10;1.30;;;;;;;;;;6246248;23;20004;-83
2021/12/11 13:01:25;;;;;;;9.80;8.75;;;;;;;;;;6246374;23;20071;-82
2021/12/11 13:03:53;;;;;;;2.53;1.60;;;;;;;;;;6246293;23;19996;-83
2021/12/11 13:06:28;;;;;;;3.70;2.70;;;;;;;;;;6246222;23;20000;-83
2021/12/11 13:08:58;;;;;;;4.88;3.88;;;;;;;;;;6246007;23;20007;-83
2021/12/11 13:11:23;;;;;;;;;;;;;;;;;;6246674;23;20327;-80
2021/12/11 13:13:51;;;;;;;3.30;1.90;;;;;;;;;;6246306;23;19908;-82
2021/12/11 13:16:32;;;;;;;9.77;8.98;;;;;;;;;;6246254;23;20004;-82
2021/12/11 13:19:19;;;;;;;1.40;1.30;;;;;;;;;;6246820;23;20000;-81
2021/12/11 13:21:50;;;;;;;1.00;1.00;;;;;;;;;;6246521;23;20374;-82
2021/12/11 13:24:17;;;;;;;1.30;1.10;;;;;;;;;;6219412;23;20004;-81
2021/12/11 13:26:46;;;;;;;1.33;1.10;;;;;;;;;;6246041;23;20083;-82
2021/12/11 13:29:18;;;;;;;1.30;1.20;;;;;;;;;;6246647;23;20007;-82
2021/12/11 13:31:52;;;;;;;2.08;1.48;;;;;;;;;;6246494;23;20431;-83
2021/12/11 13:34:18;;;;;;;1.80;1.40;;;;;;;;;;6219378;23;20039;-83
2021/12/11 13:36:48;;;;;;;1.60;1.45;;;;;;;;;;6246083;23;20036;-83
2021/12/11 13:39:16;;;;;;;4.20;3.25;;;;;;;;;;6246300;23;19996;-83
2021/12/11 13:41:59;;;;;;;12.85;9.70;;;;;;;;;;6246433;23;20004;-82
2021/12/11 13:44:28;;;;;;;8.25;6.32;;;;;;;;;;6246121;23;20077;-84
2021/12/11 13:46:54;;;;;;;4.50;3.72;;;;;;;;;;6246206;23;20008;-83
2021/12/11 13:49:20;;;;;;;2.28;1.85;;;;;;;;;;6246170;23;20010;-84
2021/12/11 13:51:46;;;;;;;1.58;1.33;;;;;;;;;;6246198;23;20001;-84
2021/12/11 13:54:16;;;;;;;1.45;1.23;;;;;;;;;;6245908;23;20015;-82
2021/12/11 13:56:44;;;;;;;;;;;;;;;;;;6247399;23;20118;-82
2021/12/11 13:59:11;;;;;;;6.88;5.90;;;;;;;;;;6247974;23;19986;-82
2021/12/11 14:01:39;;;;;;;2.92;1.55;;;;;;;;;;6248311;23;20068;-84
2021/12/11 14:04:11;;;;;;;1.40;1.30;;;;;;;;;;6247594;23;20499;-82
2021/12/11 14:06:48;;;;;;;8.70;6.13;;;;;;;;;;6248071;23;20000;-82
2021/12/11 14:09:21;;;;;;;3.58;3.08;;;;;;;;;;6221240;23;20000;-83
2021/12/11 14:11:48;;;;;;;14.98;7.80;;;;;;;;;;6248195;23;20206;-82
2021/12/11 14:14:15;;;;;;;7.13;3.85;;;;;;;;;;6247850;23;20008;-80
2021/12/11 14:16:42;;;;;;;4.13;2.22;;;;;;;;;;6248093;23;20004;-83
2021/12/11 14:19:13;;;;;;;2.38;1.65;;;;;;;;;;6221089;23;20004;-84
2021/12/11 14:21:39;;;;;;;2.15;1.67;;;;;;;;;;6247867;23;20050;-84
2021/12/11 14:24:07;;;;;;;1.02;1.00;;;;;;;;;;6247989;23;20000;-84
2021/12/11 14:26:34;;;;;;;2.17;1.75;;;;;;;;;;6247927;23;20399;-85
2021/12/11 14:29:03;;;;;;;1.45;1.20;;;;;;;;;;6247955;23;20137;-87
2021/12/11 15:39:58;;;;;;;3.13;1.90;;;;;;;;;;6192470;23;20434;-84
2021/12/11 15:42:26;;;;;;;1.85;1.70;;;;;;;;;;6247898;23;20091;-90
2021/12/11 15:44:56;;;;;;;3.50;2.08;;;;;;;;;;6220649;23;20012;-89
2021/12/11 15:47:25;;;;;;;2.17;1.92;;;;;;;;;;6220345;23;20000;-87
2021/12/11 15:49:51;;;;;;;4.50;1.83;;;;;;;;;;6247396;23;20004;-87
2021/12/11 15:52:18;;;;;;;3.35;1.85;;;;;;;;;;6220555;23;20008;-87
2021/12/11 15:54:43;;;;;;;6.50;3.47;;;;;;;;;;6220379;23;20012;-87
2021/12/11 15:57:12;;;;;;;1.98;1.55;;;;;;;;;;6246974;23;20331;-85
2021/12/11 15:59:39;;;;;;;1.98;1.75;;;;;;;;;;6247003;23;20415;-84
2021/12/11 16:02:05;;;;;;;19.48;15.35;;;;;;;;;;6247296;23;20003;-84
2021/12/11 16:04:33;;;;;;;2.22;1.70;;;;;;;;;;6246978;23;20029;-84
2021/12/11 16:07:01;;;;;;;1.83;1.45;;;;;;;;;;6220229;23;20446;-84
2021/12/11 16:09:29;;;;;;;1.90;1.40;;;;;;;;;;6246840;23;20482;-83
2021/12/11 16:11:58;;;;;;;3.85;2.60;;;;;;;;;;6219943;23;20000;-84
2021/12/11 16:14:25;;;;;;;1.30;1.20;;;;;;;;;;6246990;23;20004;-84
2021/12/11 16:16:53;;;;;;;1.92;1.55;;;;;;;;;;6246708;23;20075;-84
2021/12/11 16:19:25;;;;;;;5.63;3.63;;;;;;;;;;6219486;23;20008;-84
2021/12/11 16:21:50;;;;;;;5.20;2.35;;;;;;;;;;6246783;23;20010;-83
2021/12/11 16:24:16;;;;;;;2.00;1.50;;;;;;;;;;6246697;23;20067;-84
2021/12/11 16:26:45;;;;;;;1.23;1.13;;;;;;;;;;6246630;23;20008;-84
2021/12/11 16:29:11;;;;;;;1.98;1.67;;;;;;;;;;6247163;23;20000;-85
2021/12/11 16:31:39;;;;;;;2.65;1.95;;;;;;;;;;6246520;23;20027;-83
2021/12/11 16:34:06;;;;;;;3.58;2.25;;;;;;;;;;6245779;23;20008;-81
2021/12/11 16:36:40;;;;;;;2.58;1.80;;;;;;;;;;6245846;23;20046;-82
2021/12/11 16:39:07;;;;;;;2.30;1.45;;;;;;;;;;6245803;23;20048;-82
2021/12/11 16:41:41;;;;;;;5.93;2.15;;;;;;;;;;6246324;23;20066;-86
2021/12/11 16:44:10;;;;;;;3.40;2.40;;;;;;;;;;6246130;23;20008;-82
2021/12/11 16:46:46;;;;;;;3.87;2.97;;;;;;;;;;6246196;23;20007;-82
2021/12/11 16:49:13;;;;;;;3.17;2.70;;;;;;;;;;6246457;23;20011;-83
2021/12/11 16:51:41;;;;;;;4.43;3.47;;;;;;;;;;6246243;23;20011;-83
2021/12/11 16:54:08;;;;;;;6.20;2.80;;;;;;;;;;6246534;23;20054;-82
2021/12/11 16:56:35;;;;;;;4.65;2.95;;;;;;;;;;6246268;23;20011;-81
2021/12/11 16:59:02;;;;;;;16.65;6.70;;;;;;;;;;6246287;23;20000;-83
2021/12/11 17:01:32;;;;;;;4.43;2.65;;;;;;;;;;6246313;23;20047;-84
2021/12/11 17:03:58;;;;;;;12.30;7.10;;;;;;;;;;6246763;23;20364;-83
2021/12/11 17:06:38;;;;;;;8.75;5.18;;;;;;;;;;6219241;23;20008;-83
2021/12/11 17:09:05;;;;;;;;;;;;;;;;;;6246417;23;20106;-83
2021/12/11 17:11:31;;;;;;;1.65;1.55;;;;;;;;;;6246227;23;19914;-83
2021/12/11 17:13:58;;;;;;;8.25;5.15;;;;;;;;;;6246486;23;20383;-83
2021/12/11 17:16:28;;;;;;;10.40;4.70;;;;;;;;;;6246192;23;20001;-84
2021/12/11 17:18:55;;;;;;;6.95;4.78;;;;;;;;;;6245942;23;20057;-83
2021/12/11 17:21:23;;;;;;;6.15;5.38;;;;;;;;;;6246401;23;20011;-82
2021/12/11 17:23:52;;;;;;;8.48;5.22;;;;;;;;;;6246217;23;20020;-87
2021/12/11 17:26:18;;;;;;;8.85;6.03;;;;;;;;;;6246262;23;20043;-82
2021/12/11 17:28:54;;;;;;;8.23;5.53;;;;;;;;;;6245940;23;20087;-83
2021/12/11 17:31:21;;;;;;;11.10;7.78;;;;;;;;;;6246639;23;20029;-83
2021/12/11 17:33:49;;;;;;;6.03;5.43;;;;;;;;;;6249293;23;20004;-84
2021/12/11 17:36:17;;;;;;;8.88;5.90;;;;;;;;;;6248440;23;20336;-84
2021/12/11 17:38:43;;;;;;;12.77;7.10;;;;;;;;;;6248372;23;20004;-83
2021/12/11 17:41:10;;;;;;;14.00;8.95;;;;;;;;;;6221054;23;20338;-84
2021/12/11 17:43:37;;;;;;;7.03;4.88;;;;;;;;;;6248227;23;20012;-85
2021/12/11 17:46:05;;;;;;;8.65;5.97;;;;;;;;;;6247997;23;20007;-86
2021/12/11 17:48:32;;;;;;;2.47;2.20;;;;;;;;;;6248472;23;20075;-85
2021/12/11 17:51:00;;;;;;;28.25;11.88;;;;;;;;;;6248050;23;20086;-85
2021/12/11 17:53:27;;;;;;;12.65;5.18;;;;;;;;;;6248087;23;20007;-85
2021/12/11 17:55:55;;;;;;;3.63;1.42;;;;;;;;;;6220864;23;20090;-86
2021/12/11 17:58:26;;;;;;;171.98;51.92;;;;;;;;;;6247946;23;20068;-85
2021/12/11 18:00:57;;;;;;;3.38;1.65;;;;;;;;;;6247902;23;20004;-83
2021/12/11 18:03:24;;;;;;;162.93;43.40;;;;;;;;;;6220803;23;20015;-82
2021/12/11 18:05:51;;;;;;;855.05;312.75;;;;;;;;;;6247619;23;20054;-82
2021/12/11 18:08:22;;;;;;;20.35;7.68;;;;;;;;;;6247836;23;20000;-84
2021/12/11 18:10:58;;;;;;;2.40;1.20;;;;;;;;;;6247668;23;19996;-84
2021/12/11 18:13:48;;;;;;;1.90;1.00;;;;;;;;;;6247802;23;20007;-85
2021/12/11 18:16:21;;;;;;;1.58;1.20;;;;;;;;;;6247834;23;20007;-84
2021/12/11 18:18:56;;;;;;;2.45;1.30;;;;;;;;;;6220963;23;20427;-83
2021/12/11 18:21:33;;;;;;;3.17;2.20;;;;;;;;;;6247867;23;20009;-83
2021/12/11 18:23:59;;;;;;;1.30;1.20;;;;;;;;;;6248864;23;20511;-88
2021/12/11 18:26:32;;;;;;;3.33;1.80;;;;;;;;;;6221776;23;20008;-86
2021/12/11 18:28:59;;;;;;;2.30;1.73;;;;;;;;;;6221172;23;20012;-85
2021/12/11 18:31:26;;;;;;;1.50;1.15;;;;;;;;;;6248702;23;20012;-85
2021/12/11 18:33:54;;;;;;;2.88;0.90;;;;;;;;;;6221327;23;20091;-85
2021/12/11 18:36:24;;;;;;;2.67;1.20;;;;;;;;;;6221933;23;20023;-86
2021/12/11 18:38:50;;;;;;;2.15;1.13;;;;;;;;;;6248690;23;20430;-87
2021/12/11 18:41:24;;;;;;;2.25;1.20;;;;;;;;;;6220772;23;20016;-85
2021/12/11 18:43:52;;;;;;;2.22;1.20;;;;;;;;;;6247327;23;20328;-86
2021/12/11 18:46:22;;;;;;;1.45;1.17;;;;;;;;;;6247727;23;20007;-87
2021/12/11 18:48:48;;;;;;;4.82;2.13;;;;;;;;;;6248033;23;20000;-87
2021/12/11 18:51:22;;;;;;;1.23;1.08;;;;;;;;;;6220782;23;20028;-88
2021/12/11 18:53:51;;;;;;;1.10;1.00;;;;;;;;;;6247870;23;20012;-88
2021/12/11 18:56:17;;;;;;;1.35;1.13;;;;;;;;;;6247851;23;20440;-82
2021/12/11 18:58:46;;;;;;;1.45;1.00;;;;;;;;;;6247411;23;20347;-83
2021/12/11 19:01:18;;;;;;;1.13;1.00;;;;;;;;;;6248170;23;20000;-81
2021/12/11 19:03:51;;;;;;;1.27;0.90;;;;;;;;;;6220663;23;20332;-82
2021/12/11 19:06:23;;;;;;;2.53;1.27;;;;;;;;;;6247419;23;20011;-82
2021/12/11 19:08:51;;;;;;;1.40;1.30;;;;;;;;;;6247365;23;20004;-84
2021/12/11 19:11:25;;;;;;;4.03;1.95;;;;;;;;;;6247409;23;20002;-85
2021/12/11 19:13:53;;;;;;;0.80;0.80;;;;;;;;;;6220317;23;20086;-87
2021/12/11 19:16:20;;;;;;;2.17;1.42;;;;;;;;;;6247246;23;20008;-84
2021/12/11 19:18:46;;;;;;;6.38;3.38;;;;;;;;;;6247381;23;20071;-87
2021/12/11 19:21:25;;;;;;;2.42;1.85;;;;;;;;;;6247426;23;20024;-84
2021/12/11 19:23:54;;;;;;;3.70;2.30;;;;;;;;;;6247325;23;20050;-88
2021/12/11 19:26:21;;;;;;;23.48;9.70;;;;;;;;;;6247381;23;20331;-86
2021/12/11 19:28:51;;;;;;;522.03;233.40;;;;;;;;;;6247714;23;20007;-87
2021/12/11 19:31:20;;;;;;;17.60;10.65;;;;;;;;;;6247542;23;20355;-85
2021/12/11 19:33:49;;;;;;;9.50;8.63;;;;;;;;;;6247218;23;20419;-85
2021/12/11 19:36:22;;;;;;;0.90;0.90;;;;;;;;;;6247241;23;20006;-85
2021/12/11 19:38:51;;;;;;;1.20;1.10;;;;;;;;;;6247311;23;20012;-85
2021/12/11 19:41:19;;;;;;;1.00;1.00;;;;;;;;;;6247111;23;20443;-86
2021/12/11 19:43:49;;;;;;;1.30;1.20;;;;;;;;;;6247082;23;20050;-87
2021/12/11 19:46:16;;;;;;;2.78;2.22;;;;;;;;;;6247344;23;20004;-83
2021/12/11 19:48:42;;;;;;;2.55;1.90;;;;;;;;;;6247820;23;20481;-88
2021/12/11 19:51:20;;;;;;;5.25;3.75;;;;;;;;;;6220818;23;20016;-90
2021/12/11 19:53:48;;;;;;;1.13;1.00;;;;;;;;;;6221335;23;20000;-90
2021/12/11 19:56:16;;;;;;;1.20;0.95;;;;;;;;;;6221053;23;20085;-89
2021/12/11 19:58:42;;;;;;;1.38;0.80;;;;;;;;;;6220814;23;20340;-87
2021/12/11 20:01:20;;;;;;;1.10;1.00;;;;;;;;;;6247804;23;20413;-84
2021/12/11 20:03:58;;;;;;;1.25;1.00;;;;;;;;;;6248363;23;20008;-86
2021/12/11 20:06:28;;;;;;;0.98;0.90;;;;;;;;;;6247241;23;20027;-85
2021/12/11 20:09:05;;;;;;;1.23;1.10;;;;;;;;;;6246469;23;20000;-85
2021/12/11 20:11:37;;;;;;;0.95;0.88;;;;;;;;;;6245423;23;20004;-86
2021/12/11 20:14:03;;;;;;;1.63;1.27;;;;;;;;;;6220107;23;20091;-86
2021/12/11 20:16:31;;;;;;;1.00;0.90;;;;;;;;;;6246900;23;20004;-85
2021/12/11 20:19:06;;;;;;;1.38;1.27;;;;;;;;;;6246798;23;20007;-85
2021/12/11 20:21:42;;;;;;;0.90;0.90;;;;;;;;;;6246954;23;20027;-86
2021/12/11 20:24:10;;;;;;;1.63;1.30;;;;;;;;;;6247059;23;20003;-86
2021/12/11 20:26:37;;;;;;;2.53;1.60;;;;;;;;;;6246638;23;20007;-87
2021/12/11 20:29:44;;;;;;;1.17;0.98;;;;;;;;;;6219965;23;20027;-85
2021/12/11 20:32:15;;;;;;;19.92;9.13;;;;;;;;;;6246738;23;20027;-85
2021/12/11 20:34:42;;;;;;;28.95;13.93;;;;;;;;;;6246534;23;20091;-85
2021/12/11 20:37:10;;;;;;;3.15;2.63;;;;;;;;;;6246809;23;20004;-83
2021/12/11 20:39:36;;;;;;;2.72;1.10;;;;;;;;;;6246933;23;20016;-86
2021/12/11 20:42:07;;;;;;;3.40;3.10;;;;;;;;;;6246617;23;20030;-83
2021/12/11 20:44:37;;;;;;;4.30;3.83;;;;;;;;;;6246972;23;20004;-83
2021/12/11 20:47:05;;;;;;;3.80;3.50;;;;;;;;;;6246421;23;20007;-84
2021/12/11 20:49:33;;;;;;;2.42;2.25;;;;;;;;;;6246853;23;20031;-82
2021/12/11 20:51:58;;;;;;;3.47;2.70;;;;;;;;;;6246461;23;20007;-84
2021/12/11 20:54:32;;;;;;;1.40;1.30;;;;;;;;;;6246655;23;20079;-81
2021/12/11 20:56:59;;;;;;;1.52;1.42;;;;;;;;;;6246354;23;20003;-85
2021/12/11 20:59:25;;;;;;;1.10;1.00;;;;;;;;;;6246532;23;20495;-83
2021/12/11 21:01:55;;;;;;;1.98;1.17;;;;;;;;;;6246363;23;20004;-84
2021/12/11 21:04:32;;;;;;;1.38;1.00;;;;;;;;;;6246623;23;20076;-82
2021/12/11 21:07:08;;;;;;;2.60;1.30;;;;;;;;;;6245997;23;20019;-82
2021/12/11 21:09:54;;;;;;;1.00;1.00;;;;;;;;;;6246375;23;19996;-85
2021/12/11 21:12:24;;;;;;;1.10;0.88;;;;;;;;;;6246205;23;20121;-85
2021/12/11 21:14:51;;;;;;;;;;;;;;;;;;6246975;23;20032;-83
2021/12/11 21:17:20;;;;;;;1.33;1.05;;;;;;;;;;6246329;23;19908;-85
2021/12/11 21:19:52;;;;;;;1.63;1.00;;;;;;;;;;6246535;23;20487;-86
2021/12/11 21:22:22;;;;;;;1.48;1.33;;;;;;;;;;6246222;23;20000;-84
2021/12/11 21:24:57;;;;;;;2.00;1.30;;;;;;;;;;6246336;23;20008;-85
2021/12/11 21:27:27;;;;;;;1.77;1.50;;;;;;;;;;6219329;23;20008;-83
2021/12/11 21:29:53;;;;;;;;;;;;;;;;;;6246884;23;20008;-83
2021/12/11 21:32:21;;;;;;;1.52;1.42;;;;;;;;;;6246179;23;19942;-83
2021/12/11 21:34:52;;;;;;;1.00;0.90;;;;;;;;;;6246322;23;20082;-82
2021/12/11 21:37:20;;;;;;;3.20;1.42;;;;;;;;;;6246161;23;20015;-82
2021/12/11 21:40:04;;;;;;;2.28;1.00;;;;;;;;;;6246060;23;20020;-83
2021/12/11 21:42:39;;;;;;;0.80;0.80;;;;;;;;;;6246357;23;20000;-83
2021/12/11 21:45:20;;;;;;;0.80;0.80;;;;;;;;;;6246317;23;20446;-83
2021/12/11 21:47:54;;;;;;;0.98;0.90;;;;;;;;;;6246260;23;20008;-82
2021/12/11 21:50:25;;;;;;;3.50;1.92;;;;;;;;;;6246129;23;20000;-84
2021/12/11 21:52:50;;;;;;;2.55;1.90;;;;;;;;;;6246189;23;20360;-83
2021/12/11 21:55:21;;;;;;;1.98;1.30;;;;;;;;;;6219741;23;20039;-82
2021/12/11 21:57:47;;;;;;;1.88;1.50;;;;;;;;;;6246712;23;20004;-82
2021/12/11 22:00:21;;;;;;;1.40;1.27;;;;;;;;;;6219194;23;20035;-85
2021/12/11 22:02:57;;;;;;;1.20;1.08;;;;;;;;;;6246378;23;20005;-82
2021/12/11 22:05:37;;;;;;;0.98;0.98;;;;;;;;;;6246069;23;20000;-83
2021/12/11 22:08:02;;;;;;;;;;;;;;;;;;6246653;23;20366;-84
2021/12/11 22:10:33;;;;;;;2.10;1.60;;;;;;;;;;6219181;23;19930;-84
2021/12/11 22:12:58;;;;;;;2.58;1.30;;;;;;;;;;6246082;23;20004;-84
2021/12/11 22:15:37;;;;;;;2.67;1.45;;;;;;;;;;6219223;23;20015;-85
2021/12/11 22:18:04;;;;;;;1.85;1.40;;;;;;;;;;6247221;23;20008;-85
2021/12/11 22:20:35;;;;;;;1.90;1.40;;;;;;;;;;6248105;23;20475;-82
2021/12/11 22:23:00;;;;;;;1.55;1.20;;;;;;;;;;6247964;23;20008;-83
2021/12/11 22:25:31;;;;;;;1.20;1.10;;;;;;;;;;6247889;23;20449;-81
2021/12/11 22:27:58;;;;;;;1.13;1.02;;;;;;;;;;6221120;23;20304;-82
2021/12/11 22:30:31;;;;;;;1.33;1.08;;;;;;;;;;6221991;23;20011;-83
2021/12/11 22:32:56;;;;;;;1.13;1.02;;;;;;;;;;6248048;23;20015;-84
2021/12/11 22:35:30;;;;;;;0.82;0.80;;;;;;;;;;6247733;23;20008;-85
2021/12/11 22:37:56;;;;;;;1.08;0.98;;;;;;;;;;6220763;23;20000;-83
2021/12/11 22:40:34;;;;;;;1.15;1.00;;;;;;;;;;6247625;23;20012;-85
2021/12/11 22:43:03;;;;;;;2.95;1.17;;;;;;;;;;6247860;23;20438;-85
2021/12/11 22:45:33;;;;;;;1.23;1.13;;;;;;;;;;6247748;23;20047;-85
